sensor_id;sensor_type;location;lat;lon;timestamp;P1;durP1;ratioP1;P2;durP2;ratioP2
75914;SDS011;64593;51.050;13.780;2023-05-23T06:06:10;14.27;;;10.13;;
75914;SDS011;64593;51.050;13.780;2023-05-23T06:11:13;19.67;;;12.18;;
75914;SDS011;64593;51.050;13.780;2023-05-23T06:16:15;18.23;;;13.73;;
75914;SDS011;64593;51.050;13.780;2023-05-23T06:21:44;28.55;;;16.92;;
75914;SDS011;64593;51.050;13.780;2023-05-23T06:26:48;18.88;;;14.68;;
75914;SDS011;64593;51.050;13.780;2023-05-23T06:31:49;22.63;;;16.48;;
75914;SDS011;64593;51.050;13.780;2023-05-23T06:36:53;19.90;;;14.80;;
75914;SDS011;64593;51.050;13.780;2023-05-23T06:41:56;21.88;;;16.13;;
75914;SDS011;64593;51.050;13.780;2023-05-23T06:46:58;20.85;;;14.68;;
75914;SDS011;64593;51.050;13.780;2023-05-23T06:52:02;19.98;;;14.93;;
75914;SDS011;64593;51.050;13.780;2023-05-23T06:57:04;20.88;;;14.85;;
75914;SDS011;64593;51.050;13.780;2023-05-23T07:02:08;15.52;;;13.52;;
75914;SDS011;64593;51.050;13.780;2023-05-23T07:07:12;18.45;;;13.70;;
75914;SDS011;64593;51.050;13.780;2023-05-23T07:12:16;20.13;;;12.60;;
75914;SDS011;64593;51.050;13.780;2023-05-23T07:17:20;14.82;;;11.63;;
75914;SDS011;64593;51.050;13.780;2023-05-23T07:22:26;16.35;;;12.15;;
75914;SDS011;64593;51.050;13.780;2023-05-23T07:27:28;12.10;;;9.40;;
75914;SDS011;64593;51.050;13.780;2023-05-23T07:32:34;16.13;;;9.57;;
75914;SDS011;64593;51.050;13.780;2023-05-23T07:38:01;12.85;;;10.23;;
75914;SDS011;64593;51.050;13.780;2023-05-23T07:43:35;15.65;;;9.77;;
75914;SDS011;64593;51.050;13.780;2023-05-23T07:48:40;13.13;;;9.15;;
75914;SDS011;64593;51.050;13.780;2023-05-23T07:53:42;11.55;;;7.88;;
75914;SDS011;64593;51.050;13.780;2023-05-23T07:58:47;15.82;;;8.32;;
75914;SDS011;64593;51.050;13.780;2023-05-23T08:03:49;15.98;;;8.63;;
75914;SDS011;64593;51.050;13.780;2023-05-23T08:09:25;13.40;;;8.25;;
75914;SDS011;64593;51.050;13.780;2023-05-23T08:14:31;12.85;;;8.05;;
75914;SDS011;64593;51.050;13.780;2023-05-23T08:20:04;14.13;;;8.18;;
75914;SDS011;64593;51.050;13.780;2023-05-23T08:25:09;11.32;;;8.13;;
75914;SDS011;64593;51.050;13.780;2023-05-23T08:30:13;14.02;;;8.40;;
75914;SDS011;64593;51.050;13.780;2023-05-23T08:35:21;13.57;;;9.40;;
75914;SDS011;64593;51.050;13.780;2023-05-23T08:40:27;14.95;;;8.93;;
75914;SDS011;64593;51.050;13.780;2023-05-23T08:45:39;19.63;;;9.40;;
75914;SDS011;64593;51.050;13.780;2023-05-23T08:50:42;16.40;;;9.05;;
75914;SDS011;64593;51.050;13.780;2023-05-23T08:55:54;12.43;;;8.18;;
75914;SDS011;64593;51.050;13.780;2023-05-23T09:01:04;11.45;;;8.32;;
75914;SDS011;64593;51.050;13.780;2023-05-23T09:06:07;10.02;;;7.43;;
75914;SDS011;64593;51.050;13.780;2023-05-23T09:11:34;14.13;;;8.55;;
75914;SDS011;64593;51.050;13.780;2023-05-23T09:16:39;15.35;;;8.23;;
75914;SDS011;64593;51.050;13.780;2023-05-23T09:21:50;15.60;;;11.10;;
75914;SDS011;64593;51.050;13.780;2023-05-23T09:27:22;16.23;;;11.68;;
75914;SDS011;64593;51.050;13.780;2023-05-23T09:32:25;18.05;;;13.20;;
75914;SDS011;64593;51.050;13.780;2023-05-23T09:37:37;25.88;;;15.52;;
75914;SDS011;64593;51.050;13.780;2023-05-23T09:42:47;25.73;;;16.85;;
75914;SDS011;64593;51.050;13.780;2023-05-23T09:47:49;27.58;;;18.50;;
75914;SDS011;64593;51.050;13.780;2023-05-23T09:52:59;32.60;;;21.77;;
75914;SDS011;64593;51.050;13.780;2023-05-23T10:03:11;31.95;;;20.08;;
75914;SDS011;64593;51.050;13.780;2023-05-23T10:13:27;34.63;;;20.85;;
75914;SDS011;64593;51.050;13.780;2023-05-23T10:18:29;31.08;;;19.33;;
75914;SDS011;64593;51.050;13.780;2023-05-23T10:23:35;23.33;;;12.27;;
75914;SDS011;64593;51.050;13.780;2023-05-23T10:28:38;19.42;;;10.52;;
75914;SDS011;64593;51.050;13.780;2023-05-23T10:45:54;11.32;;;6.75;;
75914;SDS011;64593;51.050;13.780;2023-05-23T10:51:12;14.40;;;6.72;;
75914;SDS011;64593;51.050;13.780;2023-05-23T10:56:23;13.80;;;7.90;;
75914;SDS011;64593;51.050;13.780;2023-05-23T11:01:27;12.23;;;7.07;;
75914;SDS011;64593;51.050;13.780;2023-05-23T11:06:41;10.50;;;6.25;;
75914;SDS011;64593;51.050;13.780;2023-05-23T11:12:13;11.73;;;6.07;;
75914;SDS011;64593;51.050;13.780;2023-05-23T11:17:15;15.82;;;7.88;;
75914;SDS011;64593;51.050;13.780;2023-05-23T11:22:20;11.43;;;7.20;;
75914;SDS011;64593;51.050;13.780;2023-05-23T11:27:32;10.02;;;7.05;;
75914;SDS011;64593;51.050;13.780;2023-05-23T11:32:37;11.50;;;6.90;;
75914;SDS011;64593;51.050;13.780;2023-05-23T11:38:04;15.43;;;7.07;;
75914;SDS011;64593;51.050;13.780;2023-05-23T11:48:10;9.60;;;6.80;;
75914;SDS011;64593;51.050;13.780;2023-05-23T11:53:19;10.48;;;6.90;;
75914;SDS011;64593;51.050;13.780;2023-05-23T11:58:27;10.27;;;6.53;;
75914;SDS011;64593;51.050;13.780;2023-05-23T12:03:55;15.57;;;7.20;;
75914;SDS011;64593;51.050;13.780;2023-05-23T12:08:58;11.10;;;7.88;;
75914;SDS011;64593;51.050;13.780;2023-05-23T12:14:03;10.88;;;7.75;;
75914;SDS011;64593;51.050;13.780;2023-05-23T12:19:11;15.77;;;8.35;;
75914;SDS011;64593;51.050;13.780;2023-05-23T12:24:19;11.43;;;7.00;;
75914;SDS011;64593;51.050;13.780;2023-05-23T12:29:28;11.98;;;7.22;;
75914;SDS011;64593;51.050;13.780;2023-05-23T12:34:39;11.30;;;7.13;;
75914;SDS011;64593;51.050;13.780;2023-05-23T12:39:42;11.48;;;7.40;;
75914;SDS011;64593;51.050;13.780;2023-05-23T12:44:48;10.05;;;7.47;;
75914;SDS011;64593;51.050;13.780;2023-05-23T12:49:51;13.93;;;7.53;;
75914;SDS011;64593;51.050;13.780;2023-05-23T12:55:18;10.85;;;5.68;;
75914;SDS011;64593;51.050;13.780;2023-05-23T13:00:20;8.32;;;4.90;;
75914;SDS011;64593;51.050;13.780;2023-05-23T13:05:47;11.98;;;4.63;;
75914;SDS011;64593;51.050;13.780;2023-05-23T13:10:49;5.45;;;3.90;;
75914;SDS011;64593;51.050;13.780;2023-05-23T13:15:51;7.13;;;3.70;;
75914;SDS011;64593;51.050;13.780;2023-05-23T13:20:53;8.07;;;4.10;;
75914;SDS011;64593;51.050;13.780;2023-05-23T13:25:55;9.23;;;4.65;;
75914;SDS011;64593;51.050;13.780;2023-05-23T13:31:04;5.95;;;3.85;;
75914;SDS011;64593;51.050;13.780;2023-05-23T13:36:06;7.30;;;4.15;;
75914;SDS011;64593;51.050;13.780;2023-05-23T13:41:33;6.40;;;5.05;;
75914;SDS011;64593;51.050;13.780;2023-05-23T13:47:10;8.88;;;5.72;;
75914;SDS011;64593;51.050;13.780;2023-05-23T13:52:38;9.40;;;6.20;;
75914;SDS011;64593;51.050;13.780;2023-05-23T13:58:08;8.93;;;5.45;;
75914;SDS011;64593;51.050;13.780;2023-05-23T14:03:35;6.82;;;4.53;;
75914;SDS011;64593;51.050;13.780;2023-05-23T14:08:43;5.82;;;3.92;;
75914;SDS011;64593;51.050;13.780;2023-05-23T14:14:09;5.93;;;4.30;;
75914;SDS011;64593;51.050;13.780;2023-05-23T14:19:17;6.82;;;4.47;;
75914;SDS011;64593;51.050;13.780;2023-05-23T14:24:19;11.48;;;4.05;;
75914;SDS011;64593;51.050;13.780;2023-05-23T14:29:47;6.65;;;3.58;;
75914;SDS011;64593;51.050;13.780;2023-05-23T14:34:50;8.63;;;3.42;;
75914;SDS011;64593;51.050;13.780;2023-05-23T14:39:51;4.40;;;2.00;;
75914;SDS011;64593;51.050;13.780;2023-05-23T14:44:53;3.97;;;2.05;;
75914;SDS011;64593;51.050;13.780;2023-05-23T14:49:55;3.45;;;2.40;;
75914;SDS011;64593;51.050;13.780;2023-05-23T14:54:57;5.60;;;2.50;;
75914;SDS011;64593;51.050;13.780;2023-05-23T14:59:58;4.82;;;2.70;;
75914;SDS011;64593;51.050;13.780;2023-05-23T15:05:00;4.63;;;3.03;;
75914;SDS011;64593;51.050;13.780;2023-05-23T15:10:02;5.65;;;3.85;;
75914;SDS011;64593;51.050;13.780;2023-05-23T15:15:08;8.60;;;4.25;;
75914;SDS011;64593;51.050;13.780;2023-05-23T15:20:35;7.07;;;3.83;;
75914;SDS011;64593;51.050;13.780;2023-05-23T15:26:02;5.93;;;3.83;;
75914;SDS011;64593;51.050;13.780;2023-05-23T15:31:29;5.35;;;3.97;;
75914;SDS011;64593;51.050;13.780;2023-05-23T15:36:31;5.30;;;3.85;;
75914;SDS011;64593;51.050;13.780;2023-05-23T15:41:58;5.90;;;3.65;;
75914;SDS011;64593;51.050;13.780;2023-05-23T15:47:25;7.93;;;4.03;;
75914;SDS011;64593;51.050;13.780;2023-05-23T15:52:27;4.75;;;3.30;;
75914;SDS011;64593;51.050;13.780;2023-05-23T15:57:54;5.15;;;2.70;;
75914;SDS011;64593;51.050;13.780;2023-05-23T16:03:21;4.72;;;3.00;;
75914;SDS011;64593;51.050;13.780;2023-05-23T16:08:23;5.30;;;3.05;;
75914;SDS011;64593;51.050;13.780;2023-05-23T16:13:49;8.13;;;2.72;;
75914;SDS011;64593;51.050;13.780;2023-05-23T16:19:16;3.65;;;2.58;;
75914;SDS011;64593;51.050;13.780;2023-05-23T16:24:43;8.07;;;4.32;;
75914;SDS011;64593;51.050;13.780;2023-05-23T16:29:45;6.57;;;4.93;;
75914;SDS011;64593;51.050;13.780;2023-05-23T16:34:47;9.65;;;5.75;;
75914;SDS011;64593;51.050;13.780;2023-05-23T16:39:53;9.18;;;5.95;;
75914;SDS011;64593;51.050;13.780;2023-05-23T16:45:20;11.57;;;7.00;;
75914;SDS011;64593;51.050;13.780;2023-05-23T16:50:26;8.88;;;5.85;;
75914;SDS011;64593;51.050;13.780;2023-05-23T16:55:28;8.50;;;6.45;;
75914;SDS011;64593;51.050;13.780;2023-05-23T17:00:54;5.50;;;4.40;;
75914;SDS011;64593;51.050;13.780;2023-05-23T17:06:21;4.93;;;4.10;;
75914;SDS011;64593;51.050;13.780;2023-05-23T17:11:48;8.27;;;4.93;;
75914;SDS011;64593;51.050;13.780;2023-05-23T17:16:51;6.38;;;4.57;;
75914;SDS011;64593;51.050;13.780;2023-05-23T17:21:54;6.35;;;4.80;;
75914;SDS011;64593;51.050;13.780;2023-05-23T17:26:56;6.68;;;4.70;;
75914;SDS011;64593;51.050;13.780;2023-05-23T17:32:00;8.60;;;5.30;;
75914;SDS011;64593;51.050;13.780;2023-05-23T17:37:27;9.27;;;5.88;;
75914;SDS011;64593;51.050;13.780;2023-05-23T17:42:54;6.95;;;4.22;;
75914;SDS011;64593;51.050;13.780;2023-05-23T17:48:21;7.18;;;4.80;;
75914;SDS011;64593;51.050;13.780;2023-05-23T17:53:38;6.10;;;4.28;;
75914;SDS011;64593;51.050;13.780;2023-05-23T17:59:07;6.05;;;3.13;;
75914;SDS011;64593;51.050;13.780;2023-05-23T18:04:34;5.63;;;3.88;;
75914;SDS011;64593;51.050;13.780;2023-05-23T18:10:01;6.30;;;3.95;;
75914;SDS011;64593;51.050;13.780;2023-05-23T18:15:31;5.38;;;3.08;;
75914;SDS011;64593;51.050;13.780;2023-05-23T18:20:35;5.05;;;3.22;;
75914;SDS011;64593;51.050;13.780;2023-05-23T18:26:03;6.03;;;3.03;;
75914;SDS011;64593;51.050;13.780;2023-05-23T18:31:05;6.35;;;4.32;;
75914;SDS011;64593;51.050;13.780;2023-05-23T18:36:31;10.75;;;4.93;;
75914;SDS011;64593;51.050;13.780;2023-05-23T18:41:58;9.38;;;5.32;;
75914;SDS011;64593;51.050;13.780;2023-05-23T18:47:25;13.20;;;7.00;;
75914;SDS011;64593;51.050;13.780;2023-05-23T18:52:29;8.75;;;5.40;;
75914;SDS011;64593;51.050;13.780;2023-05-23T18:57:58;11.32;;;6.40;;
75914;SDS011;64593;51.050;13.780;2023-05-23T19:03:00;12.82;;;8.18;;
75914;SDS011;64593;51.050;13.780;2023-05-23T19:08:30;23.10;;;9.57;;
75914;SDS011;64593;51.050;13.780;2023-05-23T19:13:33;23.63;;;12.48;;
75914;SDS011;64593;51.050;13.780;2023-05-23T19:18:59;21.42;;;13.05;;
75914;SDS011;64593;51.050;13.780;2023-05-23T19:24:01;29.27;;;14.88;;
75914;SDS011;64593;51.050;13.780;2023-05-23T19:29:32;27.20;;;14.38;;
75914;SDS011;64593;51.050;13.780;2023-05-23T19:34:36;31.33;;;16.88;;
75914;SDS011;64593;51.050;13.780;2023-05-23T19:39:38;32.78;;;15.05;;
75914;SDS011;64593;51.050;13.780;2023-05-23T19:45:10;38.90;;;16.75;;
75914;SDS011;64593;51.050;13.780;2023-05-23T19:50:37;32.28;;;16.35;;
75914;SDS011;64593;51.050;13.780;2023-05-23T19:55:41;28.92;;;13.82;;
75914;SDS011;64593;51.050;13.780;2023-05-23T20:00:43;37.15;;;14.18;;
75914;SDS011;64593;51.050;13.780;2023-05-23T20:05:45;30.67;;;12.52;;
75914;SDS011;64593;51.050;13.780;2023-05-23T20:11:12;26.30;;;12.32;;
75914;SDS011;64593;51.050;13.780;2023-05-23T20:16:14;25.00;;;10.43;;
75914;SDS011;64593;51.050;13.780;2023-05-23T20:21:16;28.88;;;11.38;;
75914;SDS011;64593;51.050;13.780;2023-05-23T20:26:17;31.63;;;12.32;;
75914;SDS011;64593;51.050;13.780;2023-05-23T20:31:46;26.27;;;10.57;;
75914;SDS011;64593;51.050;13.780;2023-05-23T20:36:48;24.30;;;10.15;;
75914;SDS011;64593;51.050;13.780;2023-05-23T20:41:51;29.55;;;9.90;;
75914;SDS011;64593;51.050;13.780;2023-05-23T20:47:19;23.13;;;9.30;;
75914;SDS011;64593;51.050;13.780;2023-05-23T20:52:21;22.23;;;8.32;;
75914;SDS011;64593;51.050;13.780;2023-05-23T20:57:23;21.17;;;9.00;;
75914;SDS011;64593;51.050;13.780;2023-05-23T21:02:25;17.88;;;7.38;;
75914;SDS011;64593;51.050;13.780;2023-05-23T21:07:39;14.52;;;6.65;;
75914;SDS011;64593;51.050;13.780;2023-05-23T21:12:42;19.63;;;6.93;;
75914;SDS011;64593;51.050;13.780;2023-05-23T21:17:53;24.00;;;7.10;;
75914;SDS011;64593;51.050;13.780;2023-05-23T21:22:56;15.23;;;7.28;;
75914;SDS011;64593;51.050;13.780;2023-05-23T21:28:05;19.98;;;7.80;;
75914;SDS011;64593;51.050;13.780;2023-05-23T21:33:07;21.15;;;7.05;;
75914;SDS011;64593;51.050;13.780;2023-05-23T21:38:39;21.23;;;7.35;;
75914;SDS011;64593;51.050;13.780;2023-05-23T21:43:51;19.83;;;6.93;;
75914;SDS011;64593;51.050;13.780;2023-05-23T21:48:58;19.17;;;6.85;;
75914;SDS011;64593;51.050;13.780;2023-05-23T21:54:02;20.83;;;6.47;;
75914;SDS011;64593;51.050;13.780;2023-05-23T21:59:08;18.75;;;5.88;;
